ETHF

Fritzlar Airport

Fritzlar, Germany
METAR ETHF 241120Z 29011KT 9999 FEW030 BKN040 13/03 Q1031 BLU BLU+ TEMPO WHT
Observed Flight Rules
Sep-24 @ 11:20 UTC (58 minutes ago) Visual Flight Rules
Wind Visibility Clouds
290° at 11 knots 10,000+ meters
  • Few at 3,000' AGL
  • Broken at 4,000' AGL
Temperatures Readings
Current 13°C / 55°F
Dewpoint 3°C / 37°F
Humidity 51%
Altimeter 30.44" Hg
Pressure 1031 hPa
Elevation 181
METAR ETHF 241120Z 29011KT 9999 FEW030 BKN040 13/03 Q1031 BLU BLU+ TEMPO WHT
Observed Flight Rules
Sep-24 @ 11:20 UTC
(58 minutes ago)
VFR
Wind Visibility
290° at 11 knots 10,000+ meters
Clouds
  • Few at 3,000' AGL
  • Broken at 4,000' AGL
Temperature Dewpoint
13°C / 55°F 3°C / 37°F
Humidity Altimeter Pressure
51% 30.44" Hg 1031 hPa